Time;durP1;ratioP1;P1;durP2;ratioP2;P2;SDS_P1;SDS_P2;PMS_P1;PMS_P2;Temp;Humidity;BMP_temperature;BMP_pressure;BME280_temperature;BME280_humidity;BME280_pressure;Samples;Min_cycle;Max_cycle;Signal;HPM_P1;HPM_P2
2022/07/22 00:01:33;;;;;;;9.68;4.28;;;25.00;98.30;;;;;;4824507;29;20062;-78
2022/07/22 00:03:59;;;;;;;6.22;3.97;;;25.00;98.50;;;;;;4825107;29;20034;-78
2022/07/22 00:06:25;;;;;;;8.15;3.60;;;25.00;98.60;;;;;;4824929;29;20106;-78
2022/07/22 00:08:51;;;;;;;12.95;4.05;;;24.90;98.90;;;;;;4824975;29;20461;-79
2022/07/22 00:11:16;;;;;;;10.88;3.72;;;24.90;99.10;;;;;;4825918;29;20075;-79
2022/07/22 00:13:42;;;;;;;7.65;3.70;;;24.80;98.20;;;;;;4824839;29;20037;-78
2022/07/22 00:16:08;;;;;;;10.02;4.32;;;24.80;99.00;;;;;;4824180;29;20054;-79
2022/07/22 00:18:33;;;;;;;10.73;3.53;;;24.70;98.90;;;;;;4824993;29;20085;-79
2022/07/22 00:20:59;;;;;;;5.60;3.42;;;24.70;99.30;;;;;;4825020;29;20566;-78
2022/07/22 00:23:25;;;;;;;8.35;4.10;;;24.60;99.40;;;;;;4825109;29;20506;-79
2022/07/22 00:25:50;;;;;;;8.15;4.25;;;24.60;98.80;;;;;;4825006;29;20030;-78
2022/07/22 00:28:16;;;;;;;7.45;3.65;;;24.60;98.90;;;;;;4824498;29;20034;-79
2022/07/22 00:30:42;;;;;;;11.43;4.15;;;24.60;98.90;;;;;;4824743;29;20444;-78
2022/07/22 00:33:08;;;;;;;8.60;3.83;;;24.60;99.10;;;;;;4824698;29;20038;-79
2022/07/22 00:35:34;;;;;;;7.60;4.22;;;24.60;98.80;;;;;;4824902;29;20156;-78
2022/07/22 00:37:59;;;;;;;7.43;3.97;;;24.60;99.20;;;;;;4824758;29;20030;-78
2022/07/22 00:40:25;;;;;;;9.32;4.00;;;24.50;99.60;;;;;;4824761;29;20041;-78
2022/07/22 00:42:52;;;;;;;7.35;3.83;;;24.40;99.50;;;;;;4824010;29;20468;-78
2022/07/22 00:45:18;;;;;;;6.65;3.65;;;24.40;99.90;;;;;;4824634;29;20476;-78
2022/07/22 00:47:44;;;;;;;9.10;4.10;;;24.40;99.90;;;;;;4824865;29;20029;-79
2022/07/22 00:50:10;;;;;;;10.00;4.13;;;24.40;99.90;;;;;;4823691;29;20038;-76
2022/07/22 00:52:36;;;;;;;9.07;3.78;;;24.30;99.90;;;;;;4824034;29;20041;-78
2022/07/22 00:55:04;;;;;;;6.95;3.92;;;24.30;99.90;;;;;;4823993;29;20026;-77
2022/07/22 00:57:29;;;;;;;10.80;4.65;;;24.20;99.90;;;;;;4824498;29;20023;-78
2022/07/22 00:59:56;;;;;;;7.07;4.10;;;24.20;99.90;;;;;;4823486;29;20019;-78
2022/07/22 01:02:21;;;;;;;6.57;4.20;;;24.20;99.90;;;;;;4823861;29;20115;-78
2022/07/22 01:04:47;;;;;;;12.25;4.05;;;24.10;99.90;;;;;;4824119;29;20066;-78
2022/07/22 01:07:13;;;;;;;10.00;4.35;;;24.10;99.90;;;;;;4824433;29;20038;-79
2022/07/22 01:09:43;;;;;;;6.32;3.85;;;24.10;99.90;;;;;;4824350;29;20073;-79
2022/07/22 01:12:09;;;;;;;8.23;4.05;;;24.10;99.90;;;;;;4823815;29;20034;-78
2022/07/22 01:14:34;;;;;;;9.15;4.30;;;24.10;99.90;;;;;;4823825;29;20114;-79
2022/07/22 01:17:00;;;;;;;8.00;4.13;;;24.00;99.90;;;;;;4824341;29;20037;-79
2022/07/22 01:19:26;;;;;;;10.00;4.45;;;24.00;99.90;;;;;;4823328;29;20049;-79
2022/07/22 01:21:51;;;;;;;10.55;4.43;;;24.10;99.90;;;;;;4823992;29;20484;-78
2022/07/22 01:24:17;;;;;;;7.60;3.90;;;24.10;99.90;;;;;;4834611;29;20122;-78
2022/07/22 01:26:43;;;;;;;9.32;4.18;;;24.10;99.90;;;;;;4805809;29;20035;-78
2022/07/22 01:29:08;;;;;;;8.05;4.00;;;24.10;99.90;;;;;;4805560;29;20031;-78
2022/07/22 01:31:34;;;;;;;8.32;4.65;;;24.10;99.90;;;;;;4805776;29;20030;-78
2022/07/22 01:34:00;;;;;;;10.07;3.92;;;24.10;99.90;;;;;;4805342;29;20026;-78
2022/07/22 01:36:26;;;;;;;10.43;4.13;;;24.10;99.90;;;;;;4807381;29;20031;-79
2022/07/22 01:38:51;;;;;;;6.65;4.32;;;24.10;99.90;;;;;;4823552;29;20038;-78
2022/07/22 01:41:17;;;;;;;11.38;4.70;;;24.20;99.90;;;;;;4837408;29;20494;-78
2022/07/22 01:43:43;;;;;;;7.53;4.05;;;24.10;99.90;;;;;;4823864;29;20055;-78
2022/07/22 01:46:09;;;;;;;7.95;3.70;;;24.10;99.90;;;;;;4823201;29;20063;-78
2022/07/22 01:48:35;;;;;;;8.68;4.38;;;24.00;99.90;;;;;;4837364;29;20041;-78
2022/07/22 01:51:00;;;;;;;7.45;4.40;;;24.00;99.90;;;;;;4823656;29;20026;-78
2022/07/22 01:53:26;;;;;;;12.63;4.32;;;24.00;99.90;;;;;;4823685;29;20027;-78
2022/07/22 01:55:52;;;;;;;6.90;4.00;;;24.00;99.90;;;;;;4823491;29;20057;-78
2022/07/22 01:58:18;;;;;;;6.57;3.78;;;23.90;99.90;;;;;;4837361;29;20056;-78
2022/07/22 02:00:44;;;;;;;9.48;4.30;;;24.00;99.90;;;;;;4823008;29;20030;-78
2022/07/22 02:03:10;;;;;;;6.38;3.70;;;23.90;99.90;;;;;;4823191;29;20018;-78
2022/07/22 02:05:37;;;;;;;7.07;3.92;;;24.00;99.90;;;;;;4823461;29;20042;-78
2022/07/22 02:08:05;;;;;;;8.25;3.95;;;24.00;99.90;;;;;;4822715;29;20079;-78
2022/07/22 02:10:31;;;;;;;6.68;3.85;;;23.90;99.90;;;;;;4823707;29;20042;-78
2022/07/22 02:12:57;;;;;;;5.90;3.40;;;23.90;99.90;;;;;;4823331;29;20547;-78
2022/07/22 02:15:25;;;;;;;9.05;3.83;;;23.90;99.90;;;;;;4823173;29;20054;-78
2022/07/22 02:17:51;;;;;;;7.10;3.92;;;23.90;99.90;;;;;;4823159;29;20539;-78
2022/07/22 02:20:16;;;;;;;6.88;3.22;;;23.90;99.90;;;;;;4823623;29;20069;-78
2022/07/22 02:22:42;;;;;;;6.18;3.72;;;23.80;99.90;;;;;;4823046;29;20110;-78
2022/07/22 02:25:08;;;;;;;7.63;4.22;;;23.80;99.90;;;;;;4822918;29;20085;-78
2022/07/22 02:27:34;;;;;;;7.53;3.95;;;23.80;99.90;;;;;;4823663;29;20042;-78
2022/07/22 02:30:00;;;;;;;12.32;4.45;;;23.80;99.90;;;;;;4822702;29;20030;-78
2022/07/22 02:32:26;;;;;;;13.73;4.05;;;23.70;99.90;;;;;;4822956;29;20034;-78
2022/07/22 02:34:51;;;;;;;13.48;4.70;;;23.70;99.90;;;;;;4823012;29;20026;-78
2022/07/22 02:37:17;;;;;;;6.55;3.92;;;23.70;99.90;;;;;;4822763;29;20038;-78
2022/07/22 02:39:42;;;;;;;11.23;4.55;;;23.60;99.90;;;;;;4823514;29;20054;-78
2022/07/22 02:42:08;;;;;;;6.95;4.32;;;23.60;99.90;;;;;;4822679;29;20073;-78
2022/07/22 02:44:34;;;;;;;6.82;3.47;;;23.60;99.90;;;;;;4821795;29;20028;-79
2022/07/22 02:46:59;;;;;;;17.90;4.90;;;23.60;99.90;;;;;;4822940;29;20042;-79
2022/07/22 02:49:25;;;;;;;9.93;3.80;;;23.60;99.90;;;;;;4822609;29;20068;-78
2022/07/22 02:51:51;;;;;;;9.20;4.05;;;23.60;99.90;;;;;;4822564;29;20067;-78
2022/07/22 02:54:16;;;;;;;9.95;4.50;;;23.60;99.90;;;;;;4823136;29;20101;-78
2022/07/22 02:56:43;;;;;;;8.35;4.68;;;23.60;99.90;;;;;;4822934;29;20030;-78
2022/07/22 02:59:08;;;;;;;7.75;4.00;;;23.60;99.90;;;;;;4821961;29;20030;-79
2022/07/22 03:01:34;;;;;;;10.73;4.35;;;23.60;99.90;;;;;;4823233;29;20555;-78
2022/07/22 03:04:00;;;;;;;8.38;4.03;;;23.50;99.90;;;;;;4822447;29;20030;-78
2022/07/22 03:06:25;;;;;;;10.00;4.72;;;23.60;99.90;;;;;;4822133;29;20408;-78
2022/07/22 03:08:51;;;;;;;9.82;4.55;;;23.50;99.90;;;;;;4823035;29;20031;-78
2022/07/22 03:11:17;;;;;;;8.38;4.43;;;23.40;99.90;;;;;;4822566;29;20479;-78
2022/07/22 03:13:42;;;;;;;15.38;5.47;;;23.40;99.90;;;;;;4822948;29;20025;-78
2022/07/22 03:16:08;;;;;;;7.80;4.47;;;23.30;99.90;;;;;;4822370;29;20534;-79
2022/07/22 03:18:34;;;;;;;7.82;4.15;;;23.30;99.90;;;;;;4822518;29;20488;-78
2022/07/22 03:21:00;;;;;;;9.80;4.60;;;23.20;99.90;;;;;;4822475;29;20391;-78
2022/07/22 03:23:26;;;;;;;9.80;4.97;;;23.10;99.90;;;;;;4821304;29;20034;-78
2022/07/22 03:25:51;;;;;;;8.07;4.15;;;23.20;99.90;;;;;;4822486;29;20109;-79
2022/07/22 03:28:17;;;;;;;10.52;4.70;;;23.10;99.90;;;;;;4822346;29;20042;-78
2022/07/22 03:30:43;;;;;;;7.28;4.15;;;23.00;99.90;;;;;;4822520;29;20437;-78
2022/07/22 03:33:08;;;;;;;9.73;4.75;;;23.10;99.90;;;;;;4822513;29;20034;-78
2022/07/22 03:35:34;;;;;;;10.30;4.35;;;23.10;99.90;;;;;;4822563;29;20030;-78
2022/07/22 03:38:00;;;;;;;12.70;4.70;;;22.90;99.90;;;;;;4822470;29;20031;-78
2022/07/22 03:40:25;;;;;;;13.60;4.75;;;23.00;99.90;;;;;;4822312;29;20391;-78
2022/07/22 03:42:51;;;;;;;8.35;4.30;;;23.10;99.90;;;;;;4825211;29;20030;-78
2022/07/22 03:45:16;;;;;;;9.38;4.85;;;23.00;99.90;;;;;;4825072;29;20026;-78
2022/07/22 03:47:42;;;;;;;12.05;4.47;;;23.00;99.90;;;;;;4825876;29;20022;-78
2022/07/22 03:50:08;;;;;;;10.15;5.03;;;23.00;99.90;;;;;;4824863;29;20045;-78
2022/07/22 03:52:34;;;;;;;11.50;4.57;;;22.90;99.90;;;;;;4825453;29;20035;-78
2022/07/22 03:55:00;;;;;;;12.25;4.32;;;22.80;99.90;;;;;;4824989;29;20037;-78
2022/07/22 03:57:27;;;;;;;12.70;4.85;;;22.80;99.90;;;;;;4824641;29;20042;-78
2022/07/22 03:59:52;;;;;;;12.25;4.95;;;22.90;99.90;;;;;;4825331;29;20058;-78
2022/07/22 04:02:19;;;;;;;12.98;4.93;;;23.00;99.90;;;;;;4839254;29;20495;-78
2022/07/22 04:04:45;;;;;;;12.18;5.18;;;23.00;99.90;;;;;;4825019;29;20034;-78
2022/07/22 04:07:10;;;;;;;7.28;4.78;;;22.90;99.90;;;;;;4825367;29;20035;-80
2022/07/22 04:09:36;;;;;;;8.80;4.50;;;22.90;99.90;;;;;;4824806;29;20035;-72
2022/07/22 04:12:02;;;;;;;13.18;4.88;;;22.80;99.90;;;;;;4824985;29;20022;-72
2022/07/22 04:14:28;;;;;;;10.00;4.63;;;22.90;99.90;;;;;;4824685;29;20095;-72
2022/07/22 04:16:53;;;;;;;7.88;4.72;;;22.90;99.90;;;;;;4825203;29;20471;-74
2022/07/22 04:19:19;;;;;;;12.27;4.63;;;22.90;99.90;;;;;;4824964;29;20580;-72
2022/07/22 04:21:44;;;;;;;11.35;5.15;;;22.70;99.90;;;;;;4825202;29;20042;-72
2022/07/22 04:24:11;;;;;;;12.38;5.07;;;22.70;99.90;;;;;;4824726;29;20037;-72
2022/07/22 04:26:37;;;;;;;14.05;5.78;;;22.40;99.90;;;;;;4824922;29;20091;-72
2022/07/22 04:29:04;;;;;;;10.90;4.97;;;22.50;99.90;;;;;;4825264;29;20453;-70
2022/07/22 04:31:30;;;;;;;13.60;5.00;;;22.50;99.90;;;;;;4824361;29;20038;-72
2022/07/22 04:33:56;;;;;;;11.82;5.43;;;22.40;99.90;;;;;;4824313;29;20083;-74
2022/07/22 04:36:22;;;;;;;7.57;4.47;;;22.40;99.90;;;;;;4824743;29;20030;-78
2022/07/22 04:38:48;;;;;;;8.90;4.22;;;22.30;99.90;;;;;;4824858;29;20030;-79
2022/07/22 04:41:14;;;;;;;15.20;4.68;;;22.30;99.90;;;;;;4825066;29;20026;-79
2022/07/22 04:43:39;;;;;;;10.70;4.78;;;22.20;99.90;;;;;;4824772;29;20042;-79
2022/07/22 04:46:05;;;;;;;8.60;4.85;;;22.20;99.90;;;;;;4824014;29;20070;-79
2022/07/22 04:48:30;;;;;;;11.10;4.85;;;22.40;99.90;;;;;;4823915;29;20054;-79
2022/07/22 04:51:00;;;;;;;9.90;5.03;;;22.30;99.90;;;;;;4824546;29;20034;-79
2022/07/22 04:53:26;;;;;;;10.63;5.03;;;22.30;99.90;;;;;;4823518;29;20073;-78
2022/07/22 04:55:52;;;;;;;16.05;4.88;;;22.40;99.90;;;;;;4838519;29;20026;-79
2022/07/22 04:58:18;;;;;;;16.63;5.35;;;22.40;99.90;;;;;;4824473;29;20034;-79
2022/07/22 05:00:43;;;;;;;8.88;4.78;;;22.40;99.90;;;;;;4823886;29;20427;-79
2022/07/22 05:03:09;;;;;;;13.00;5.55;;;22.40;99.90;;;;;;4824094;29;20023;-79
2022/07/22 05:05:35;;;;;;;12.15;5.50;;;22.40;99.90;;;;;;4824477;29;20030;-78
2022/07/22 05:08:00;;;;;;;12.73;4.75;;;22.30;99.90;;;;;;4824281;29;20025;-79
2022/07/22 05:10:27;;;;;;;16.30;4.93;;;22.20;99.90;;;;;;4824078;29;20117;-79
2022/07/22 05:12:53;;;;;;;10.15;5.05;;;22.20;99.90;;;;;;4824319;29;20383;-79
2022/07/22 05:15:19;;;;;;;8.43;5.05;;;22.10;99.90;;;;;;4823601;29;20058;-79
2022/07/22 05:17:44;;;;;;;13.18;5.00;;;22.20;99.90;;;;;;4824282;29;20039;-78
2022/07/22 05:20:10;;;;;;;22.27;5.47;;;22.30;99.90;;;;;;4823466;29;20062;-79
2022/07/22 05:22:36;;;;;;;12.40;5.72;;;22.20;99.90;;;;;;4823877;29;20115;-78
2022/07/22 05:25:02;;;;;;;14.57;4.97;;;22.10;99.90;;;;;;4823984;29;20068;-79
2022/07/22 05:27:28;;;;;;;10.25;5.00;;;22.30;99.90;;;;;;4823760;29;20467;-79
2022/07/22 05:29:53;;;;;;;16.15;5.50;;;22.30;99.90;;;;;;4823967;29;20034;-79
2022/07/22 05:32:19;;;;;;;10.68;4.82;;;22.30;99.90;;;;;;4823453;29;20022;-78
2022/07/22 05:34:45;;;;;;;10.05;5.05;;;22.40;99.90;;;;;;4823860;29;20095;-78
2022/07/22 05:37:10;;;;;;;14.25;5.38;;;22.40;99.90;;;;;;4824078;29;20026;-79
2022/07/22 05:39:36;;;;;;;14.70;5.57;;;22.30;99.90;;;;;;4823948;29;20042;-79
2022/07/22 05:42:02;;;;;;;12.00;5.43;;;22.30;99.90;;;;;;4824047;29;20030;-79
2022/07/22 05:44:27;;;;;;;15.15;4.43;;;22.30;99.90;;;;;;4823453;29;20046;-79
2022/07/22 05:46:53;;;;;;;16.55;5.32;;;22.30;99.90;;;;;;4823234;29;20035;-78
2022/07/22 05:49:19;;;;;;;12.35;5.35;;;22.40;99.90;;;;;;4823590;29;20103;-79
2022/07/22 05:51:45;;;;;;;11.20;5.00;;;22.40;99.90;;;;;;4823497;29;20018;-78
2022/07/22 05:54:11;;;;;;;18.85;5.97;;;22.40;99.90;;;;;;4823648;29;20411;-78
2022/07/22 05:56:36;;;;;;;10.95;4.90;;;22.30;99.90;;;;;;4823316;29;20440;-78
2022/07/22 05:59:02;;;;;;;10.82;5.50;;;22.50;99.90;;;;;;4824032;29;20031;-79
2022/07/22 06:01:28;;;;;;;12.55;5.30;;;22.60;99.90;;;;;;4823181;29;20034;-78
2022/07/22 06:03:53;;;;;;;22.55;7.07;;;22.60;99.90;;;;;;4823155;29;20065;-79
2022/07/22 06:06:19;;;;;;;20.63;5.53;;;22.70;99.90;;;;;;4823548;29;20030;-78
2022/07/22 06:08:45;;;;;;;18.17;6.00;;;22.80;99.90;;;;;;4823203;29;20047;-78
2022/07/22 06:11:11;;;;;;;15.13;5.07;;;22.90;99.90;;;;;;4823221;29;20023;-78
2022/07/22 06:13:37;;;;;;;12.88;5.50;;;23.00;99.90;;;;;;4823328;29;20062;-78
2022/07/22 06:16:04;;;;;;;19.73;6.10;;;22.80;99.90;;;;;;4822832;29;20050;-78
2022/07/22 06:18:29;;;;;;;12.10;5.90;;;22.80;99.90;;;;;;4823363;29;20037;-78
2022/07/22 06:20:55;;;;;;;14.18;6.03;;;22.90;99.90;;;;;;4822971;29;20030;-78
2022/07/22 06:23:23;;;;;;;13.85;6.05;;;22.90;99.90;;;;;;4823230;29;20045;-78
2022/07/22 06:25:49;;;;;;;17.52;5.78;;;22.90;99.90;;;;;;4822708;29;20117;-78
2022/07/22 06:28:15;;;;;;;14.43;5.45;;;22.90;99.90;;;;;;4827278;29;20117;-77
2022/07/22 06:30:40;;;;;;;18.00;6.47;;;22.90;99.90;;;;;;4822723;29;20023;-78
2022/07/22 06:33:06;;;;;;;16.55;6.28;;;22.90;99.90;;;;;;4836615;29;20042;-77
2022/07/22 06:35:32;;;;;;;11.00;5.45;;;22.90;99.90;;;;;;4822415;29;20027;-78
2022/07/22 06:37:57;;;;;;;13.48;6.15;;;23.00;99.90;;;;;;4822901;29;20518;-79
2022/07/22 06:40:23;;;;;;;13.95;5.55;;;23.10;99.90;;;;;;4823118;29;20089;-76
2022/07/22 06:42:49;;;;;;;13.00;5.57;;;23.10;99.90;;;;;;4822797;29;20091;-78
2022/07/22 06:45:15;;;;;;;21.20;6.30;;;23.00;99.90;;;;;;4824070;29;20584;-78
2022/07/22 06:47:40;;;;;;;17.05;6.90;;;22.90;99.90;;;;;;4824023;29;20065;-78
2022/07/22 06:50:08;;;;;;;15.63;6.32;;;23.00;99.90;;;;;;4826638;29;20471;-78
2022/07/22 06:52:33;;;;;;;21.17;6.40;;;22.80;99.90;;;;;;4822992;29;20041;-80
2022/07/22 06:54:59;;;;;;;13.43;5.63;;;23.00;99.90;;;;;;4822348;29;20030;-78
2022/07/22 06:57:25;;;;;;;19.20;6.25;;;23.00;99.90;;;;;;4822241;29;20547;-78
2022/07/22 06:59:50;;;;;;;16.67;6.45;;;23.00;99.90;;;;;;4822623;29;20050;-79
2022/07/22 07:02:16;;;;;;;14.63;5.97;;;23.00;99.90;;;;;;4823149;29;20034;-79
2022/07/22 07:04:42;;;;;;;22.13;7.00;;;23.00;99.90;;;;;;4822604;29;20026;-79
2022/07/22 07:07:08;;;;;;;18.83;6.45;;;22.90;99.90;;;;;;4822857;29;20087;-79
2022/07/22 07:09:35;;;;;;;14.52;5.63;;;23.10;99.90;;;;;;4822093;29;20027;-78
2022/07/22 07:12:00;;;;;;;16.65;6.30;;;23.20;99.90;;;;;;4822612;29;20027;-79
2022/07/22 07:14:26;;;;;;;19.63;5.93;;;23.10;99.90;;;;;;4822499;29;20050;-79
2022/07/22 07:16:52;;;;;;;20.60;5.95;;;23.20;99.90;;;;;;4822481;29;20046;-79
2022/07/22 07:19:19;;;;;;;17.63;6.40;;;23.40;99.90;;;;;;4826570;29;20034;-79
2022/07/22 07:21:45;;;;;;;16.38;6.72;;;23.40;99.90;;;;;;4825385;29;20034;-78
2022/07/22 07:24:11;;;;;;;14.85;5.93;;;23.40;99.90;;;;;;4826588;29;20069;-79
2022/07/22 07:26:37;;;;;;;19.65;5.95;;;23.50;99.90;;;;;;4818818;29;20500;-81
2022/07/22 07:29:02;;;;;;;17.30;5.72;;;23.40;99.90;;;;;;4824125;29;20038;-79
2022/07/22 07:31:28;;;;;;;25.70;6.25;;;23.60;99.90;;;;;;4821037;29;20033;-78
2022/07/22 07:33:54;;;;;;;17.23;5.93;;;23.70;99.90;;;;;;4823030;29;20104;-78
2022/07/22 07:36:20;;;;;;;18.77;6.75;;;23.60;99.90;;;;;;4824320;29;20025;-79
2022/07/22 07:38:46;;;;;;;19.35;6.50;;;23.80;99.90;;;;;;4824307;29;20573;-79
2022/07/22 07:41:11;;;;;;;13.40;6.55;;;23.70;99.90;;;;;;4823981;29;20034;-78
2022/07/22 07:43:37;;;;;;;23.63;6.72;;;23.70;99.90;;;;;;4823267;29;20067;-79
2022/07/22 07:46:03;;;;;;;12.65;5.40;;;23.60;99.90;;;;;;4823722;29;20407;-79
2022/07/22 07:48:28;;;;;;;17.42;6.03;;;23.70;99.90;;;;;;4823871;29;20034;-79
2022/07/22 07:50:54;;;;;;;15.13;6.00;;;23.80;99.90;;;;;;4823878;29;20031;-79
2022/07/22 07:53:20;;;;;;;24.40;6.55;;;23.80;99.90;;;;;;4825083;29;20027;-78
2022/07/22 07:55:46;;;;;;;20.50;5.95;;;23.70;99.90;;;;;;4817363;29;20041;-78
2022/07/22 07:58:11;;;;;;;19.60;6.40;;;23.90;99.90;;;;;;4814794;29;20118;-79
2022/07/22 08:00:39;;;;;;;17.45;6.55;;;24.10;99.90;;;;;;4823277;29;20101;-79
2022/07/22 08:03:05;;;;;;;13.93;5.60;;;24.10;99.90;;;;;;4823594;29;20018;-79
2022/07/22 08:05:31;;;;;;;17.92;5.68;;;24.20;99.90;;;;;;4823567;29;20029;-79
2022/07/22 08:07:56;;;;;;;17.88;5.90;;;24.30;99.90;;;;;;4819758;29;20404;-79
2022/07/22 08:10:23;;;;;;;19.05;5.88;;;24.40;99.90;;;;;;4823933;29;20037;-79
2022/07/22 08:12:50;;;;;;;13.82;5.93;;;24.50;99.90;;;;;;4824733;29;20026;-79
2022/07/22 08:15:16;;;;;;;19.05;5.85;;;24.70;99.90;;;;;;4817467;29;20065;-79
2022/07/22 08:17:42;;;;;;;15.90;6.00;;;24.90;99.90;;;;;;4825021;29;20018;-78
2022/07/22 08:20:08;;;;;;;17.02;6.18;;;25.00;99.90;;;;;;4824939;29;20069;-79
2022/07/22 08:22:34;;;;;;;15.32;5.45;;;25.10;99.90;;;;;;4824278;29;20022;-79
2022/07/22 08:25:00;;;;;;;15.50;4.95;;;25.20;99.90;;;;;;4824821;29;20514;-79
2022/07/22 08:27:26;;;;;;;16.73;5.72;;;25.40;99.90;;;;;;4824865;29;20034;-79
2022/07/22 08:29:51;;;;;;;12.38;5.85;;;25.50;99.90;;;;;;4828846;29;20062;-78
2022/07/22 08:32:18;;;;;;;18.95;6.00;;;25.40;99.90;;;;;;4839122;29;20075;-79
2022/07/22 08:34:44;;;;;;;14.88;5.80;;;25.70;99.90;;;;;;4824449;29;20109;-78
2022/07/22 08:37:09;;;;;;;17.52;6.05;;;25.40;99.90;;;;;;4824171;29;20571;-79
2022/07/22 08:39:35;;;;;;;14.13;4.90;;;25.20;99.90;;;;;;4824205;29;20042;-79
2022/07/22 08:42:02;;;;;;;13.90;5.60;;;25.70;99.90;;;;;;4838150;29;20066;-79
2022/07/22 08:44:32;;;;;;;12.93;5.72;;;25.90;99.90;;;;;;4824747;29;20531;-79
2022/07/22 08:46:59;;;;;;;11.70;5.22;;;26.20;99.90;;;;;;4824372;29;20113;-79
2022/07/22 08:49:24;;;;;;;14.98;6.18;;;26.10;99.90;;;;;;4824130;29;20030;-79
2022/07/22 08:51:50;;;;;;;12.55;5.20;;;26.30;99.90;;;;;;4824405;29;20060;-79
2022/07/22 08:54:16;;;;;;;18.95;5.97;;;26.70;99.90;;;;;;4822797;29;20034;-79
2022/07/22 08:56:50;;;;;;;15.05;6.15;;;27.20;99.90;;;;;;4824122;29;20022;-79
2022/07/22 08:59:15;;;;;;;15.93;5.53;;;27.30;99.90;;;;;;4824760;29;20530;-79
2022/07/22 09:02:20;;;;;;;13.15;6.00;;;27.70;99.90;;;;;;4824121;29;20034;-78
2022/07/22 09:05:02;;;;;;;11.35;5.25;;;27.90;99.90;;;;;;4860278;29;20046;-79
2022/07/22 09:07:36;;;;;;;14.40;5.35;;;28.30;99.90;;;;;;4860709;29;20116;-79
2022/07/22 09:10:04;;;;;;;12.75;5.10;;;28.60;99.90;;;;;;4856210;29;20051;-79
2022/07/22 09:12:31;;;;;;;10.10;5.15;;;28.70;99.90;;;;;;4849022;29;20104;-78
2022/07/22 09:14:59;;;;;;;11.70;5.20;;;28.80;99.90;;;;;;4857580;29;20053;-78
2022/07/22 09:17:35;;;;;;;14.57;5.30;;;29.10;99.90;;;;;;4861322;29;20057;-78
2022/07/22 09:20:05;;;;;;;14.02;5.03;;;28.90;99.60;;;;;;4867610;29;20026;-78
2022/07/22 09:22:32;;;;;;;12.07;5.05;;;29.10;99.20;;;;;;4857954;29;20034;-79
2022/07/22 09:25:16;;;;;;;16.40;5.15;;;29.10;98.90;;;;;;4857968;29;20049;-78
2022/07/22 09:27:41;;;;;;;20.50;5.30;;;29.30;98.80;;;;;;4858296;29;20041;-79
2022/07/22 09:30:13;;;;;;;11.98;4.63;;;29.70;97.50;;;;;;4857680;29;20052;-81
2022/07/22 09:32:42;;;;;;;;;;;29.20;98.00;;;;;;4858593;29;20017;-80
2022/07/22 09:35:08;;;;;;;13.57;5.38;;;29.60;97.20;;;;;;4844586;29;20095;-79
2022/07/22 09:37:34;;;;;;;15.15;5.60;;;29.70;96.70;;;;;;4830734;29;20041;-78
2022/07/22 09:40:17;;;;;;;10.18;5.00;;;29.80;95.70;;;;;;4841270;29;20041;-78
2022/07/22 09:42:50;;;;;;;13.50;5.68;;;29.50;96.70;;;;;;4828759;29;20031;-79
2022/07/22 09:45:17;;;;;;;17.77;5.25;;;29.70;96.20;;;;;;4819883;29;20105;-78
2022/07/22 09:47:44;;;;;;;15.40;5.25;;;30.20;95.80;;;;;;4822144;29;20032;-78
2022/07/22 09:50:15;;;;;;;12.00;4.95;;;29.90;95.90;;;;;;4823135;29;20038;-79
2022/07/22 09:52:42;;;;;;;10.43;5.15;;;30.20;96.00;;;;;;4822562;29;20067;-78
2022/07/22 09:55:08;;;;;;;10.00;4.85;;;30.00;94.60;;;;;;4821296;29;20037;-79
2022/07/22 09:57:34;;;;;;;12.35;5.50;;;30.40;93.90;;;;;;4829520;29;20037;-79
2022/07/22 10:00:00;;;;;;;11.18;4.85;;;30.30;94.30;;;;;;4822284;29;20028;-79
2022/07/22 10:02:27;;;;;;;12.38;5.22;;;29.70;95.20;;;;;;4822697;29;20098;-79
2022/07/22 10:04:55;;;;;;;14.77;5.30;;;29.80;95.10;;;;;;4821681;29;20066;-79
2022/07/22 10:07:23;;;;;;;15.27;5.68;;;30.40;95.00;;;;;;4823946;29;20091;-79
2022/07/22 10:09:49;;;;;;;9.43;4.97;;;30.70;93.30;;;;;;4822904;29;20033;-79
2022/07/22 10:12:16;;;;;;;9.73;4.40;;;30.80;92.10;;;;;;4822184;29;20030;-79
2022/07/22 10:14:42;;;;;;;11.60;5.60;;;30.80;91.70;;;;;;4822483;29;20058;-79
2022/07/22 10:17:08;;;;;;;12.48;4.80;;;30.60;92.20;;;;;;4822397;29;20026;-79
2022/07/22 10:19:35;;;;;;;11.57;5.43;;;30.50;92.10;;;;;;4823316;29;20102;-79
2022/07/22 10:22:00;;;;;;;10.13;5.03;;;30.40;92.30;;;;;;4821580;29;20034;-79
2022/07/22 10:24:26;;;;;;;12.43;4.82;;;30.40;92.10;;;;;;4821935;29;20030;-80
2022/07/22 10:26:55;;;;;;;11.68;5.25;;;30.50;92.00;;;;;;4822024;29;20090;-83
2022/07/22 10:29:29;;;;;;;10.18;5.13;;;31.00;91.90;;;;;;4821765;29;20026;-79
2022/07/22 10:32:17;;;;;;;13.30;5.40;;;31.10;90.80;;;;;;4821488;29;20096;-79
2022/07/22 10:35:10;;;;;;;9.63;4.53;;;31.00;91.50;;;;;;4816039;29;20542;-79
2022/07/22 10:37:38;;;;;;;11.27;5.05;;;31.20;91.50;;;;;;4827952;29;20038;-78
2022/07/22 10:40:11;;;;;;;11.02;4.97;;;31.00;91.20;;;;;;4836929;29;20034;-79
2022/07/22 10:43:08;;;;;;;12.40;5.18;;;31.00;90.80;;;;;;4822550;29;20034;-80
2022/07/22 10:45:45;;;;;;;11.65;4.80;;;30.90;90.70;;;;;;4836895;29;20031;-79
2022/07/22 10:48:13;;;;;;;11.80;4.97;;;31.00;91.40;;;;;;4823085;29;20042;-78
2022/07/22 10:50:43;;;;;;;10.05;4.78;;;30.90;90.50;;;;;;4823671;29;20030;-79
2022/07/22 10:53:10;;;;;;;10.48;5.07;;;31.20;90.00;;;;;;4826021;29;20026;-82
2022/07/22 10:55:37;;;;;;;10.52;4.82;;;31.10;89.90;;;;;;4840936;29;20026;-79
2022/07/22 10:58:34;;;;;;;12.60;5.03;;;31.30;88.60;;;;;;4829027;29;20026;-79
2022/07/22 11:01:02;;;;;;;9.85;4.35;;;31.30;88.30;;;;;;4822053;29;20085;-78
2022/07/22 11:03:29;;;;;;;8.35;4.50;;;31.30;85.10;;;;;;4828047;29;20058;-76
2022/07/22 11:05:56;;;;;;;15.18;4.93;;;31.30;85.60;;;;;;4825513;29;20030;-78
2022/07/22 11:08:22;;;;;;;11.07;4.05;;;31.30;84.50;;;;;;4824189;29;20061;-78
2022/07/22 11:10:49;;;;;;;10.57;4.97;;;31.70;83.80;;;;;;4824525;29;20030;-80
2022/07/22 11:13:35;;;;;;;12.43;4.15;;;31.80;82.60;;;;;;4825287;29;20517;-77
2022/07/22 11:16:23;;;;;;;10.82;4.38;;;31.70;83.70;;;;;;4824924;29;20042;-78
2022/07/22 11:18:53;;;;;;;11.18;4.80;;;31.40;83.60;;;;;;4825254;29;20456;-77
2022/07/22 11:21:28;;;;;;;12.90;4.88;;;31.60;83.80;;;;;;4825034;29;20030;-78
2022/07/22 11:23:55;;;;;;;11.02;5.10;;;31.80;84.80;;;;;;4824769;29;20027;-77
2022/07/22 11:26:46;;;;;;;7.93;4.60;;;31.70;83.90;;;;;;4824727;29;20495;-79
2022/07/22 11:29:40;;;;;;;15.40;5.45;;;31.30;86.10;;;;;;4823595;29;20026;-77
2022/07/22 11:32:07;;;;;;;11.60;4.75;;;31.60;84.40;;;;;;4825458;29;20491;-79
2022/07/22 11:34:42;;;;;;;10.45;4.90;;;31.60;84.00;;;;;;4824867;29;20034;-79
2022/07/22 11:37:08;;;;;;;10.57;4.47;;;31.50;83.70;;;;;;4825339;29;20539;-77
2022/07/22 11:39:35;;;;;;;10.95;4.65;;;31.60;83.30;;;;;;4825100;29;20034;-78
2022/07/22 11:42:01;;;;;;;14.30;4.70;;;31.70;82.70;;;;;;4825126;29;20101;-78
2022/07/22 11:44:30;;;;;;;13.95;4.63;;;31.80;83.00;;;;;;4824765;29;20555;-75
2022/07/22 11:46:58;;;;;;;12.18;4.85;;;31.10;85.80;;;;;;4825208;29;20047;-76
2022/07/22 11:49:29;;;;;;;13.02;4.13;;;31.80;85.00;;;;;;4825128;29;20057;-77
2022/07/22 11:51:55;;;;;;;16.33;4.78;;;32.20;81.20;;;;;;4824789;29;20568;-77
2022/07/22 11:54:21;;;;;;;9.38;4.72;;;32.00;83.30;;;;;;4824934;29;20119;-77
2022/07/22 11:56:46;;;;;;;9.18;4.03;;;32.40;80.50;;;;;;4825180;29;20064;-77
2022/07/22 11:59:14;;;;;;;8.63;4.15;;;32.30;81.50;;;;;;4824265;29;20066;-77
2022/07/22 12:01:40;;;;;;;9.50;4.13;;;32.20;81.50;;;;;;4824753;29;20050;-77
2022/07/22 12:04:08;;;;;;;11.38;4.50;;;32.20;81.30;;;;;;4829301;29;20034;-77
2022/07/22 12:06:38;;;;;;;12.80;4.40;;;31.50;82.80;;;;;;4825758;29;20031;-77
2022/07/22 12:09:08;;;;;;;10.27;4.78;;;31.80;81.40;;;;;;4838066;29;20056;-77
2022/07/22 12:11:36;;;;;;;9.20;4.28;;;31.80;82.00;;;;;;4826582;29;20113;-76
2022/07/22 12:14:07;;;;;;;14.00;3.92;;;32.00;80.40;;;;;;4823539;29;20389;-77
2022/07/22 12:16:33;;;;;;;9.13;3.70;;;32.10;82.10;;;;;;4823930;29;20042;-76
2022/07/22 12:19:06;;;;;;;8.43;4.10;;;32.20;79.60;;;;;;4823448;29;20083;-77
2022/07/22 12:21:49;;;;;;;7.38;3.80;;;32.50;78.20;;;;;;4822228;29;20105;-77
2022/07/22 12:24:14;;;;;;;10.05;4.00;;;31.90;78.70;;;;;;4819417;29;20037;-77
2022/07/22 12:26:44;;;;;;;6.70;3.83;;;31.50;81.90;;;;;;4823547;29;20030;-78
2022/07/22 12:29:26;;;;;;;12.57;3.88;;;31.40;80.60;;;;;;4823539;29;20056;-78
2022/07/22 12:31:54;;;;;;;9.88;4.05;;;31.10;81.70;;;;;;4836144;29;20043;-77
2022/07/22 12:34:35;;;;;;;11.43;3.85;;;30.80;83.20;;;;;;4824139;29;20038;-79
2022/07/22 12:37:11;;;;;;;8.90;3.80;;;30.90;83.80;;;;;;4843444;29;20037;-78
2022/07/22 12:39:36;;;;;;;11.18;4.80;;;31.00;82.90;;;;;;4823959;29;20047;-78
2022/07/22 12:42:02;;;;;;;8.45;3.67;;;30.80;83.80;;;;;;4838401;29;20042;-78